createdAt,value
2023-02-06T00:02:23.930Z,103766.47
2023-02-06T00:04:51.495Z,103765.66
2023-02-06T00:07:19.010Z,103767.56
2023-02-06T00:09:46.540Z,103766.63
2023-02-06T00:12:14.465Z,103773.59
2023-02-06T00:14:43.306Z,103771.19
2023-02-06T00:17:10.802Z,103773.88
2023-02-06T00:19:38.380Z,103771.09
2023-02-06T00:22:05.870Z,103768.19
2023-02-06T00:24:33.439Z,103768.06
2023-02-06T00:27:01.101Z,103769.91
2023-02-06T00:29:28.651Z,103769.78
2023-02-06T00:31:57.527Z,103768.28
2023-02-06T00:34:25.446Z,103775.19
2023-02-06T00:36:53.007Z,103773.59
2023-02-06T00:39:20.806Z,103772.75
2023-02-06T00:41:50.134Z,103777.16
2023-02-06T00:44:18.521Z,103775.59
2023-02-06T00:46:46.101Z,103776.47
2023-02-06T00:49:15.199Z,103777.28
2023-02-06T00:51:42.813Z,103771.81
2023-02-06T00:54:10.610Z,103770.09
2023-02-06T00:56:38.181Z,103767.47
2023-02-06T00:59:05.809Z,103764.94
2023-02-06T01:01:33.445Z,103763.78
2023-02-06T01:04:01.761Z,103758.38
2023-02-06T01:06:30.677Z,103763.78
2023-02-06T01:08:58.203Z,103766.06
2023-02-06T01:11:28.922Z,103756.38
2023-02-06T01:13:56.620Z,103757.91
2023-02-06T01:16:25.764Z,103756.38
2023-02-06T01:18:54.052Z,103760.16
2023-02-06T01:21:23.446Z,103765.34
2023-02-06T01:23:54.756Z,103761.09
2023-02-06T01:26:24.311Z,103758.66
2023-02-06T01:28:51.904Z,103764.63
2023-02-06T01:31:23.269Z,103767.41
2023-02-06T01:33:52.161Z,103765.91
2023-02-06T01:36:20.802Z,103769.28
2023-02-06T01:38:49.270Z,103771.53
2023-02-06T01:41:20.244Z,103780.19
2023-02-06T01:44:07.180Z,103768.44
2023-02-06T01:46:35.025Z,103774.03
2023-02-06T01:49:03.835Z,103777.78
2023-02-06T01:51:33.142Z,103777.94
2023-02-06T01:54:05.429Z,103793.34
2023-02-06T01:56:40.873Z,103788.63
2023-02-06T01:59:08.439Z,103790.56
2023-02-06T02:01:36.557Z,103792.25
2023-02-06T02:04:06.537Z,103789.25
2023-02-06T02:06:35.464Z,103792.66
2023-02-06T02:09:04.653Z,103797.50
2023-02-06T02:11:35.892Z,103796.78
2023-02-06T02:14:16.046Z,103798.91
2023-02-06T02:16:53.896Z,103791.94
2023-02-06T02:19:59.634Z,103792.66
2023-02-06T02:22:45.113Z,103796.78
2023-02-06T02:25:43.564Z,103801.28
2023-02-06T02:28:35.670Z,103802.69
2023-02-06T02:31:28.642Z,103807.47
2023-02-06T02:34:32.265Z,103813.69
2023-02-06T02:37:11.152Z,103822.31
2023-02-06T02:39:46.777Z,103814.59
2023-02-06T02:42:24.062Z,103822.16
2023-02-06T02:44:56.244Z,103822.69
2023-02-06T02:47:29.559Z,103822.31
2023-02-06T02:50:01.066Z,103820.38
2023-02-06T02:52:30.680Z,103814.66
2023-02-06T02:54:58.264Z,103805.19
2023-02-06T02:57:30.397Z,103801.97
2023-02-06T03:00:00.570Z,103799.47
2023-02-06T03:02:35.858Z,103799.16
2023-02-06T03:05:06.660Z,103792.16
2023-02-06T03:07:46.198Z,103786.72
2023-02-06T03:10:22.521Z,103767.41
2023-02-06T03:12:56.613Z,103765.78
2023-02-06T03:15:30.652Z,103764.00
2023-02-06T03:18:03.290Z,103757.16
2023-02-06T03:20:32.762Z,103757.16
2023-02-06T03:23:03.823Z,103757.38
2023-02-06T03:25:37.769Z,103764.91
2023-02-06T03:28:11.739Z,103773.88
2023-02-06T03:30:42.276Z,103770.41
2023-02-06T03:33:14.386Z,103762.94
2023-02-06T03:35:42.221Z,103758.50
2023-02-06T03:38:11.507Z,103759.53
2023-02-06T03:40:41.882Z,103761.31
2023-02-06T03:43:12.869Z,103765.88
2023-02-06T03:45:43.627Z,103749.78
2023-02-06T03:48:15.727Z,103754.09
2023-02-06T03:50:47.855Z,103749.94
2023-02-06T03:53:18.289Z,103744.97
2023-02-06T03:55:48.168Z,103739.72
2023-02-06T03:58:15.968Z,103736.28
2023-02-06T04:00:46.732Z,103743.25
2023-02-06T04:03:16.182Z,103737.88
2023-02-06T04:05:43.709Z,103741.09
2023-02-06T04:08:11.261Z,103741.59
2023-02-06T04:10:40.142Z,103749.38
2023-02-06T04:13:07.650Z,103745.06
2023-02-06T04:15:35.627Z,103736.19
2023-02-06T04:18:04.536Z,103726.25
2023-02-06T04:20:32.761Z,103734.91
2023-02-06T04:23:00.425Z,103723.69
2023-02-06T04:25:28.089Z,103725.59
2023-02-06T04:27:57.008Z,103723.38
2023-02-06T04:30:24.630Z,103734.84
2023-02-06T04:32:52.419Z,103730.63
2023-02-06T04:35:20.346Z,103731.25
2023-02-06T04:37:47.845Z,103733.63
2023-02-06T04:40:15.399Z,103734.16
2023-02-06T04:42:42.913Z,103733.06
2023-02-06T04:45:12.031Z,103737.13
2023-02-06T04:47:40.097Z,103732.06
2023-02-06T04:50:08.427Z,103736.44
2023-02-06T04:52:35.945Z,103727.25
2023-02-06T04:55:03.448Z,103733.50
2023-02-06T04:57:30.967Z,103737.28
2023-02-06T04:59:58.464Z,103745.28
2023-02-06T05:02:27.406Z,103741.91
2023-02-06T05:04:54.900Z,103742.03
2023-02-06T05:07:22.512Z,103742.03
2023-02-06T05:09:50.103Z,103745.56
2023-02-06T05:12:17.617Z,103744.84
2023-02-06T05:14:45.218Z,103747.69
2023-02-06T05:17:12.726Z,103749.03
2023-02-06T05:19:41.577Z,103755.34
2023-02-06T05:22:09.330Z,103743.25
2023-02-06T05:24:36.877Z,103736.16
2023-02-06T05:27:04.989Z,103739.91
2023-02-06T05:29:32.552Z,103748.78
2023-02-06T05:32:00.104Z,103752.31
2023-02-06T05:34:27.928Z,103748.06
2023-02-06T05:36:56.851Z,103762.81
2023-02-06T05:39:24.752Z,103760.06
2023-02-06T05:41:52.286Z,103768.06
2023-02-06T05:44:19.829Z,103778.97
2023-02-06T05:46:48.502Z,103777.72
2023-02-06T05:49:16.233Z,103770.47
2023-02-06T05:51:43.835Z,103773.03
2023-02-06T05:54:13.132Z,103774.09
2023-02-06T05:56:40.646Z,103773.88
2023-02-06T05:59:08.143Z,103773.75
2023-02-06T06:01:35.688Z,103768.19
2023-02-06T06:04:03.797Z,103775.19
2023-02-06T06:06:31.538Z,103777.81
2023-02-06T06:09:01.193Z,103786.91
2023-02-06T06:11:30.545Z,103781.00
2023-02-06T06:13:58.093Z,103775.88
2023-02-06T06:16:25.898Z,103769.53
2023-02-06T06:18:53.481Z,103775.53
2023-02-06T06:21:20.969Z,103784.59
2023-02-06T06:23:48.528Z,103788.19
2023-02-06T06:26:16.312Z,103781.47
2023-02-06T06:28:45.182Z,103779.38
2023-02-06T06:31:13.300Z,103770.94
2023-02-06T06:33:41.878Z,103769.53
2023-02-06T06:36:12.900Z,103768.31
2023-02-06T06:38:41.837Z,103777.28
2023-02-06T06:41:09.329Z,103762.25
2023-02-06T06:43:37.018Z,103769.31
2023-02-06T06:46:06.373Z,103775.75
2023-02-06T06:48:36.372Z,103768.59
2023-02-06T06:51:03.952Z,103775.25
2023-02-06T06:53:31.535Z,103774.56
2023-02-06T06:56:03.551Z,103782.16
2023-02-06T06:58:31.368Z,103783.69
2023-02-06T07:00:58.941Z,103786.84
2023-02-06T07:03:28.028Z,103788.72
2023-02-06T07:05:55.541Z,103780.28
2023-02-06T07:08:23.102Z,103782.41
2023-02-06T07:10:50.724Z,103784.75
2023-02-06T07:13:18.332Z,103791.03
2023-02-06T07:15:45.876Z,103790.94
2023-02-06T07:18:13.397Z,103799.06
2023-02-06T07:20:42.301Z,103802.03
2023-02-06T07:23:09.810Z,103808.78
2023-02-06T07:25:37.532Z,103803.31
2023-02-06T07:28:05.386Z,103800.16
2023-02-06T07:30:32.979Z,103807.84
2023-02-06T07:33:00.579Z,103809.53
2023-02-06T07:35:28.225Z,103806.72
2023-02-06T07:37:57.190Z,103809.66
2023-02-06T07:40:26.249Z,103808.00
2023-02-06T07:42:53.822Z,103810.41
2023-02-06T07:45:26.870Z,103817.81
2023-02-06T07:47:54.733Z,103829.06
2023-02-06T07:50:22.261Z,103834.44
2023-02-06T07:52:49.821Z,103828.22
2023-02-06T07:55:18.850Z,103824.28
2023-02-06T07:57:46.382Z,103829.16
2023-02-06T08:00:14.947Z,103816.38
2023-02-06T08:02:42.980Z,103816.06
2023-02-06T08:05:10.489Z,103813.19
2023-02-06T08:07:38.126Z,103809.16
2023-02-06T08:10:06.435Z,103802.16
2023-02-06T08:12:35.259Z,103809.28
2023-02-06T08:15:03.725Z,103820.13
2023-02-06T08:17:31.276Z,103812.38
2023-02-06T08:19:58.773Z,103809.56
2023-02-06T08:22:26.413Z,103821.31
2023-02-06T08:24:54.046Z,103821.31
2023-02-06T08:27:21.674Z,103833.66
2023-02-06T08:29:51.613Z,103841.94
2023-02-06T08:32:19.184Z,103841.03
2023-02-06T08:34:46.769Z,103838.88
2023-02-06T08:37:14.387Z,103831.69
2023-02-06T08:39:42.057Z,103840.00
2023-02-06T08:42:09.566Z,103835.66
2023-02-06T08:44:37.297Z,103838.16
2023-02-06T08:47:10.415Z,103834.94
2023-02-06T08:49:38.707Z,103831.31
2023-02-06T08:52:06.717Z,103836.16
2023-02-06T08:54:36.334Z,103836.16
2023-02-06T08:57:06.498Z,103829.13
2023-02-06T08:59:34.793Z,103826.81
2023-02-06T09:02:02.564Z,103828.34
2023-02-06T09:04:34.510Z,103824.31
2023-02-06T09:07:02.080Z,103823.63
2023-02-06T09:09:29.622Z,103821.69
2023-02-06T09:12:02.071Z,103828.53
2023-02-06T09:14:29.781Z,103825.63
2023-02-06T09:16:58.093Z,103828.69
2023-02-06T09:19:26.128Z,103828.22
2023-02-06T09:21:55.152Z,103814.25
2023-02-06T09:24:22.826Z,103813.59
2023-02-06T09:27:00.210Z,103799.56
2023-02-06T09:29:31.308Z,103808.16
2023-02-06T09:31:59.290Z,103818.13
2023-02-06T09:34:27.970Z,103813.31
2023-02-06T09:36:57.704Z,103818.47
2023-02-06T09:39:25.710Z,103819.16
2023-02-06T09:41:55.906Z,103829.97
2023-02-06T09:44:29.024Z,103842.44
2023-02-06T09:47:02.008Z,103843.03
2023-02-06T09:49:32.691Z,103839.19
2023-02-06T09:52:13.666Z,103831.78
2023-02-06T09:54:52.106Z,103826.31
2023-02-06T09:57:31.195Z,103821.28
2023-02-06T10:00:02.011Z,103814.56
2023-02-06T10:03:01.836Z,103830.88
2023-02-06T10:05:40.686Z,103841.09
2023-02-06T10:08:20.196Z,103840.69
2023-02-06T10:10:51.639Z,103842.00
2023-02-06T10:13:25.269Z,103845.84
2023-02-06T10:15:56.527Z,103854.78
2023-02-06T10:18:30.513Z,103849.31
2023-02-06T10:21:01.642Z,103851.78
2023-02-06T10:23:35.236Z,103850.44
2023-02-06T10:26:12.265Z,103846.63
2023-02-06T10:28:41.400Z,103837.16
2023-02-06T10:31:40.377Z,103832.25
2023-02-06T10:34:29.671Z,103828.59
2023-02-06T10:37:11.270Z,103822.50
2023-02-06T10:39:49.497Z,103820.50
2023-02-06T10:42:24.513Z,103828.19
2023-02-06T10:45:17.126Z,103822.88
2023-02-06T10:47:54.218Z,103825.50
2023-02-06T10:50:28.423Z,103822.00
2023-02-06T10:52:59.581Z,103830.81
2023-02-06T10:55:33.637Z,103840.81
2023-02-06T10:58:07.766Z,103839.38
2023-02-06T11:00:36.081Z,103838.56
2023-02-06T11:03:08.485Z,103838.38
2023-02-06T11:05:37.409Z,103837.16
2023-02-06T11:08:14.710Z,103839.25
2023-02-06T11:10:43.735Z,103842.19
2023-02-06T11:13:14.821Z,103843.41
2023-02-06T11:15:48.955Z,103833.50
2023-02-06T11:18:20.362Z,103839.50
2023-02-06T11:20:50.022Z,103849.00
2023-02-06T11:23:19.800Z,103837.25
2023-02-06T11:25:56.676Z,103838.41
2023-02-06T11:28:25.105Z,103842.38
2023-02-06T11:30:58.395Z,103839.63
2023-02-06T11:33:41.814Z,103852.59
2023-02-06T11:36:24.789Z,103853.66
2023-02-06T11:38:58.037Z,103849.19
2023-02-06T11:41:28.067Z,103838.88
2023-02-06T11:44:02.330Z,103843.88
2023-02-06T11:46:32.301Z,103840.31
2023-02-06T11:49:06.122Z,103845.22
2023-02-06T11:51:49.762Z,103837.47
2023-02-06T11:54:23.632Z,103833.84
2023-02-06T11:57:03.174Z,103848.63
2023-02-06T11:59:34.322Z,103850.78
2023-02-06T12:02:06.882Z,103846.53
2023-02-06T12:04:38.675Z,103854.63
2023-02-06T12:07:14.766Z,103852.00
2023-02-06T12:09:42.486Z,103855.72
2023-02-06T12:12:22.815Z,103860.00
2023-02-06T12:14:55.125Z,103847.78
2023-02-06T12:17:28.115Z,103852.47
2023-02-06T12:20:02.151Z,103851.44
2023-02-06T12:22:36.085Z,103842.28
2023-02-06T12:25:05.418Z,103846.88
2023-02-06T12:27:39.268Z,103842.00
2023-02-06T12:30:17.823Z,103839.13
2023-02-06T12:32:50.854Z,103836.09
2023-02-06T12:35:24.552Z,103829.41
2023-02-06T12:37:56.299Z,103834.59
2023-02-06T12:40:39.946Z,103835.75
2023-02-06T12:43:12.097Z,103833.72
2023-02-06T12:45:49.788Z,103836.28
2023-02-06T12:48:21.409Z,103829.59
2023-02-06T12:51:05.589Z,103837.41
2023-02-06T12:53:38.360Z,103838.59
2023-02-06T12:56:14.359Z,103836.03
2023-02-06T12:58:55.036Z,103833.22
2023-02-06T13:01:38.088Z,103824.53
2023-02-06T13:04:08.161Z,103827.44
2023-02-06T13:06:44.772Z,103821.38
2023-02-06T13:09:19.437Z,103824.59
2023-02-06T13:11:47.093Z,103817.59
2023-02-06T13:14:20.697Z,103817.13
2023-02-06T13:16:58.112Z,103810.13
2023-02-06T13:19:32.608Z,103805.09
2023-02-06T13:22:35.028Z,103798.91
2023-02-06T13:25:23.102Z,103793.44
2023-02-06T13:27:50.778Z,103790.16
2023-02-06T13:30:47.772Z,103781.63
2023-02-06T13:33:17.388Z,103790.03
2023-02-06T13:36:07.997Z,103794.16
2023-02-06T13:38:42.242Z,103798.31
2023-02-06T13:41:28.149Z,103799.78
2023-02-06T13:43:59.027Z,103798.31
2023-02-06T13:46:54.457Z,103795.66
2023-02-06T13:49:44.415Z,103789.56
2023-02-06T13:52:20.679Z,103794.44
2023-02-06T13:55:03.815Z,103798.94
2023-02-06T13:57:52.271Z,103802.84
2023-02-06T14:00:24.309Z,103798.94
2023-02-06T14:02:56.672Z,103799.56
2023-02-06T14:05:31.769Z,103785.88
2023-02-06T14:08:19.737Z,103795.97
2023-02-06T14:11:34.706Z,103799.88
2023-02-06T14:14:24.760Z,103801.50
2023-02-06T14:17:02.654Z,103814.00
2023-02-06T14:19:40.678Z,103806.59
2023-02-06T14:22:19.153Z,103805.97
2023-02-06T14:25:04.522Z,103812.53
2023-02-06T14:27:46.585Z,103806.69
2023-02-06T14:30:27.806Z,103813.13
2023-02-06T14:33:08.096Z,103809.63
2023-02-06T14:35:51.470Z,103815.00
2023-02-06T14:38:43.542Z,103816.22
2023-02-06T14:41:11.595Z,103817.81
2023-02-06T14:43:44.028Z,103817.84
2023-02-06T14:46:16.699Z,103815.09
2023-02-06T14:48:47.903Z,103809.78
2023-02-06T14:51:24.316Z,103811.66
2023-02-06T14:53:54.352Z,103807.72
2023-02-06T14:56:28.501Z,103811.16
2023-02-06T14:58:56.328Z,103816.59
2023-02-06T15:01:29.139Z,103812.47
2023-02-06T15:04:11.245Z,103814.28
2023-02-06T15:06:42.347Z,103820.16
2023-02-06T15:09:24.824Z,103815.69
2023-02-06T15:11:54.031Z,103822.75
2023-02-06T15:14:24.556Z,103816.56
2023-02-06T15:16:52.693Z,103823.38
2023-02-06T15:19:22.772Z,103814.22
2023-02-06T15:22:01.660Z,103814.03
2023-02-06T15:24:43.359Z,103809.88
2023-02-06T15:27:19.848Z,103810.91
2023-02-06T15:29:50.034Z,103807.28
2023-02-06T15:32:27.813Z,103809.91
2023-02-06T15:34:55.635Z,103813.00
2023-02-06T15:37:28.726Z,103816.06
2023-02-06T15:40:00.591Z,103822.19
2023-02-06T15:42:28.282Z,103827.47
2023-02-06T15:44:55.969Z,103821.25
2023-02-06T15:47:23.769Z,103813.69
2023-02-06T15:49:53.206Z,103812.81
2023-02-06T15:52:39.388Z,103811.88
2023-02-06T15:55:07.259Z,103805.91
2023-02-06T15:57:39.257Z,103814.25
2023-02-06T16:00:15.503Z,103823.38
2023-02-06T16:02:43.164Z,103806.25
2023-02-06T16:05:24.909Z,103807.09
2023-02-06T16:07:54.769Z,103818.06
2023-02-06T16:10:25.896Z,103819.13
2023-02-06T16:12:55.124Z,103828.00
2023-02-06T16:15:29.458Z,103826.59
2023-02-06T16:17:58.224Z,103833.22
2023-02-06T16:20:32.302Z,103827.44
2023-02-06T16:23:31.784Z,103832.72
2023-02-06T16:26:08.506Z,103831.75
2023-02-06T16:28:41.884Z,103838.59
2023-02-06T16:31:13.763Z,103840.84
2023-02-06T16:33:44.100Z,103848.56
2023-02-06T16:36:14.161Z,103835.63
2023-02-06T16:38:48.374Z,103844.56
2023-02-06T16:41:25.958Z,103845.69
2023-02-06T16:43:54.588Z,103844.31
2023-02-06T16:46:22.442Z,103841.13
2023-02-06T16:48:50.150Z,103847.38
2023-02-06T16:51:19.674Z,103850.53
2023-02-06T16:53:49.866Z,103849.41
2023-02-06T16:56:18.950Z,103844.47
2023-02-06T16:58:47.113Z,103850.44
2023-02-06T17:01:21.872Z,103845.31
2023-02-06T17:03:50.222Z,103852.66
2023-02-06T17:06:21.113Z,103848.91
2023-02-06T17:08:52.698Z,103853.78
2023-02-06T17:11:20.494Z,103849.22
2023-02-06T17:13:48.222Z,103848.81
2023-02-06T17:16:19.646Z,103859.31
2023-02-06T17:18:47.943Z,103849.50
2023-02-06T17:21:18.049Z,103849.66
2023-02-06T17:23:46.255Z,103858.44
2023-02-06T17:26:17.659Z,103857.91
2023-02-06T17:28:45.720Z,103858.63
2023-02-06T17:31:13.531Z,103861.16
2023-02-06T17:33:41.133Z,103866.22
2023-02-06T17:36:17.197Z,103875.06
2023-02-06T17:38:44.991Z,103879.63
2023-02-06T17:41:12.746Z,103877.47
2023-02-06T17:43:41.725Z,103882.44
2023-02-06T17:46:11.805Z,103888.22
2023-02-06T17:48:42.500Z,103880.81
2023-02-06T17:51:11.028Z,103877.38
2023-02-06T17:53:39.067Z,103886.06
2023-02-06T17:56:07.294Z,103896.78
2023-02-06T17:58:35.043Z,103886.75
2023-02-06T18:01:03.964Z,103899.75
2023-02-06T18:03:31.553Z,103889.34
2023-02-06T18:05:59.641Z,103890.16
2023-02-06T18:08:27.848Z,103887.16
2023-02-06T18:10:55.985Z,103890.31
2023-02-06T18:13:24.313Z,103892.28
2023-02-06T18:15:52.941Z,103890.25
2023-02-06T18:18:22.520Z,103899.25
2023-02-06T18:20:50.273Z,103892.59
2023-02-06T18:23:19.146Z,103895.84
2023-02-06T18:25:46.991Z,103895.00
2023-02-06T18:28:16.281Z,103892.25
2023-02-06T18:30:43.949Z,103901.44
2023-02-06T18:33:12.676Z,103892.97
2023-02-06T18:35:44.237Z,103893.78
2023-02-06T18:38:12.229Z,103892.78
2023-02-06T18:40:40.957Z,103891.50
2023-02-06T18:43:07.856Z,103885.19
2023-02-06T18:45:38.185Z,103887.41
2023-02-06T18:48:07.880Z,103890.41
2023-02-06T18:50:36.512Z,103888.41
2023-02-06T18:53:05.593Z,103884.28
2023-02-06T18:55:34.799Z,103894.53
2023-02-06T18:58:02.921Z,103891.47
2023-02-06T19:00:30.606Z,103895.97
2023-02-06T19:02:59.179Z,103894.81
2023-02-06T19:05:28.879Z,103898.22
2023-02-06T19:07:56.439Z,103895.59
2023-02-06T19:10:25.791Z,103898.22
2023-02-06T19:12:53.342Z,103898.16
2023-02-06T19:15:21.115Z,103893.94
2023-02-06T19:17:49.469Z,103897.88
2023-02-06T19:20:17.336Z,103904.34
2023-02-06T19:22:44.847Z,103896.66
2023-02-06T19:25:14.546Z,103906.84
2023-02-06T19:27:43.813Z,103895.19
2023-02-06T19:30:13.532Z,103902.13
2023-02-06T19:32:41.166Z,103903.72
2023-02-06T19:35:09.155Z,103914.25
2023-02-06T19:37:36.749Z,103916.50
2023-02-06T19:40:04.571Z,103915.81
2023-02-06T19:42:32.122Z,103915.97
2023-02-06T19:45:01.051Z,103915.81
2023-02-06T19:47:28.658Z,103905.34
2023-02-06T19:49:56.207Z,103898.50
2023-02-06T19:52:23.825Z,103901.50
2023-02-06T19:54:51.409Z,103910.44
2023-02-06T19:57:19.330Z,103918.44
2023-02-06T19:59:46.948Z,103907.63
2023-02-06T20:02:16.693Z,103921.78
2023-02-06T20:04:45.127Z,103923.19
2023-02-06T20:07:12.854Z,103915.16
2023-02-06T20:09:41.769Z,103915.16
2023-02-06T20:12:09.999Z,103918.00
2023-02-06T20:14:37.583Z,103914.81
2023-02-06T20:17:05.732Z,103914.94
2023-02-06T20:19:34.681Z,103923.25
2023-02-06T20:22:03.040Z,103916.00
2023-02-06T20:24:32.457Z,103913.00
2023-02-06T20:27:05.577Z,103908.59
2023-02-06T20:29:35.691Z,103910.63
2023-02-06T20:32:04.398Z,103915.56
2023-02-06T20:34:32.178Z,103913.72
2023-02-06T20:37:01.573Z,103920.25
2023-02-06T20:39:30.244Z,103915.41
2023-02-06T20:41:57.838Z,103912.97
2023-02-06T20:44:26.180Z,103919.22
2023-02-06T20:46:54.056Z,103918.06
2023-02-06T20:49:23.814Z,103918.03
2023-02-06T20:51:51.566Z,103917.25
2023-02-06T20:54:21.511Z,103915.63
2023-02-06T20:56:49.620Z,103920.00
2023-02-06T20:59:19.507Z,103912.38
2023-02-06T21:01:47.512Z,103912.44
2023-02-06T21:04:16.573Z,103914.03
2023-02-06T21:06:44.482Z,103908.25
2023-02-06T21:09:12.740Z,103918.69
2023-02-06T21:11:44.195Z,103923.19
2023-02-06T21:14:13.054Z,103922.38
2023-02-06T21:16:41.141Z,103917.06
2023-02-06T21:19:11.376Z,103925.69
2023-02-06T21:21:39.493Z,103930.00
2023-02-06T21:24:08.534Z,103932.34
2023-02-06T21:26:37.027Z,103934.22
2023-02-06T21:29:07.668Z,103943.88
2023-02-06T21:31:38.800Z,103942.47
2023-02-06T21:34:09.020Z,103947.75
2023-02-06T21:36:38.891Z,103945.13
2023-02-06T21:39:07.696Z,103955.09
2023-02-06T21:41:35.614Z,103942.44
2023-02-06T21:44:03.375Z,103953.69
2023-02-06T21:46:33.316Z,103953.22
2023-02-06T21:49:00.984Z,103957.63
2023-02-06T21:51:28.854Z,103951.31
2023-02-06T21:53:56.912Z,103956.44
2023-02-06T21:56:27.018Z,103956.97
2023-02-06T21:58:54.669Z,103959.50
2023-02-06T22:01:24.757Z,103960.72
2023-02-06T22:03:54.247Z,103962.75
2023-02-06T22:06:22.266Z,103964.59
2023-02-06T22:08:52.439Z,103961.03
2023-02-06T22:11:22.069Z,103968.28
2023-02-06T22:13:50.569Z,103972.50
2023-02-06T22:16:22.088Z,103975.00
2023-02-06T22:18:49.787Z,103975.50
2023-02-06T22:21:20.956Z,103970.56
2023-02-06T22:23:49.953Z,103973.16
2023-02-06T22:26:19.712Z,103972.63
2023-02-06T22:28:47.503Z,103976.25
2023-02-06T22:31:18.136Z,103982.88
2023-02-06T22:33:46.031Z,103981.91
2023-02-06T22:36:15.944Z,103981.31
2023-02-06T22:38:46.644Z,103981.31
2023-02-06T22:41:16.402Z,103981.56
2023-02-06T22:43:45.676Z,103981.31
2023-02-06T22:46:18.806Z,103983.84
2023-02-06T22:48:46.429Z,103988.00
2023-02-06T22:51:14.018Z,103982.88
2023-02-06T22:53:42.346Z,103977.69
2023-02-06T22:56:31.104Z,103977.91
2023-02-06T22:59:00.561Z,103977.16
2023-02-06T23:01:30.500Z,103979.59
2023-02-06T23:03:58.738Z,103985.56
2023-02-06T23:06:27.559Z,103980.56
2023-02-06T23:08:56.346Z,103974.59
2023-02-06T23:11:26.219Z,103982.22
2023-02-06T23:13:54.862Z,103978.22
2023-02-06T23:16:23.200Z,103978.28
2023-02-06T23:18:51.635Z,103967.38
2023-02-06T23:21:21.320Z,103965.78
2023-02-06T23:23:49.342Z,103972.91
2023-02-06T23:26:19.594Z,103967.63
2023-02-06T23:28:48.560Z,103976.44
2023-02-06T23:31:16.528Z,103966.44
2023-02-06T23:33:44.219Z,103966.69
2023-02-06T23:36:14.542Z,103969.41
2023-02-06T23:38:43.209Z,103965.06
2023-02-06T23:41:13.024Z,103956.50
2023-02-06T23:43:40.823Z,103965.06
2023-02-06T23:46:12.389Z,103962.81
2023-02-06T23:48:40.663Z,103952.28
2023-02-06T23:51:08.534Z,103950.03
2023-02-06T23:53:36.089Z,103945.72
2023-02-06T23:56:11.004Z,103955.16
2023-02-06T23:58:38.613Z,103953.19
